createdAt,value
2022-10-31T00:01:19.748Z,6.07
2022-10-31T00:03:47.220Z,6.04
2022-10-31T00:06:15.459Z,6.05
2022-10-31T00:08:43.274Z,6.05
2022-10-31T00:11:11.414Z,6.06
2022-10-31T00:13:39.089Z,6.03
2022-10-31T00:16:14.414Z,6.02
2022-10-31T00:18:42.070Z,6.00
2022-10-31T00:21:09.646Z,5.98
2022-10-31T00:23:37.134Z,6.00
2022-10-31T00:26:06.307Z,5.99
2022-10-31T00:28:34.544Z,5.98
2022-10-31T00:31:04.824Z,5.97
2022-10-31T00:33:35.662Z,6.00
2022-10-31T00:36:04.026Z,5.98
2022-10-31T00:38:32.263Z,5.96
2022-10-31T00:41:00.135Z,5.93
2022-10-31T00:43:27.898Z,5.96
2022-10-31T00:45:55.610Z,5.95
2022-10-31T00:48:23.049Z,5.95
2022-10-31T00:50:50.832Z,5.92
2022-10-31T00:53:18.560Z,5.91
2022-10-31T00:55:46.048Z,5.89
2022-10-31T01:00:42.111Z,5.90
2022-10-31T01:03:10.191Z,5.89
2022-10-31T01:05:37.815Z,5.90
2022-10-31T01:08:05.639Z,5.91
2022-10-31T01:10:33.088Z,5.90
2022-10-31T01:13:00.801Z,5.91
2022-10-31T01:15:28.705Z,5.90
2022-10-31T01:17:56.540Z,5.89
2022-10-31T01:20:24.357Z,5.88
2022-10-31T01:22:51.777Z,5.87
2022-10-31T01:25:19.353Z,5.84
2022-10-31T01:27:47.053Z,5.86
2022-10-31T01:30:14.857Z,5.87
2022-10-31T01:32:42.283Z,5.85
2022-10-31T01:35:09.684Z,5.82
2022-10-31T01:37:37.241Z,5.82
2022-10-31T01:40:05.347Z,5.82
2022-10-31T01:42:33.068Z,5.83
2022-10-31T01:45:02.615Z,5.84
2022-10-31T01:47:41.562Z,5.82
2022-10-31T01:50:33.724Z,5.82
2022-10-31T01:53:02.298Z,5.81
2022-10-31T01:55:34.020Z,5.79
2022-10-31T01:58:14.883Z,5.81
2022-10-31T02:00:47.010Z,5.81
2022-10-31T02:03:15.362Z,5.82
2022-10-31T02:05:43.932Z,5.80
2022-10-31T02:08:23.845Z,5.81
2022-10-31T02:10:51.395Z,5.78
2022-10-31T02:13:20.707Z,5.76
2022-10-31T02:15:54.935Z,5.74
2022-10-31T02:18:24.230Z,5.73
2022-10-31T02:21:20.347Z,5.73
2022-10-31T02:24:05.954Z,5.71
2022-10-31T02:26:51.312Z,5.68
2022-10-31T02:29:36.839Z,5.68
2022-10-31T02:32:35.661Z,5.67
2022-10-31T02:35:32.642Z,5.64
2022-10-31T02:38:21.859Z,5.62
2022-10-31T02:41:11.102Z,5.58
2022-10-31T02:43:49.894Z,5.58
2022-10-31T02:46:24.696Z,5.56
2022-10-31T02:48:56.369Z,5.55
2022-10-31T02:51:24.151Z,5.52
2022-10-31T02:53:51.611Z,5.50
2022-10-31T02:56:20.743Z,5.49
2022-10-31T02:59:05.236Z,5.48
2022-10-31T03:01:39.959Z,5.45
2022-10-31T03:04:19.963Z,5.45
2022-10-31T03:07:01.154Z,5.44
2022-10-31T03:09:34.364Z,5.44
2022-10-31T03:12:16.399Z,5.43
2022-10-31T03:15:02.515Z,5.43
2022-10-31T03:17:42.967Z,5.41
2022-10-31T03:20:11.700Z,5.40
2022-10-31T03:22:43.395Z,5.37
2022-10-31T03:25:13.170Z,5.36
2022-10-31T03:27:43.442Z,5.36
2022-10-31T03:30:11.508Z,5.33
2022-10-31T03:32:47.891Z,5.34
2022-10-31T03:35:18.970Z,5.28
2022-10-31T03:37:49.559Z,5.25
2022-10-31T03:40:20.186Z,5.28
2022-10-31T03:42:58.859Z,5.28
2022-10-31T03:45:30.568Z,5.27
2022-10-31T03:48:00.708Z,5.25
2022-10-31T03:50:39.403Z,5.24
2022-10-31T03:53:20.741Z,5.19
2022-10-31T03:55:58.512Z,5.16
2022-10-31T03:58:38.347Z,5.14
2022-10-31T04:01:09.808Z,5.13
2022-10-31T04:03:39.287Z,5.14
2022-10-31T04:06:10.053Z,5.14
2022-10-31T04:08:46.291Z,5.11
2022-10-31T04:11:17.449Z,5.09
2022-10-31T04:13:47.003Z,5.09
2022-10-31T04:16:17.295Z,5.11
2022-10-31T04:18:45.475Z,5.13
2022-10-31T04:21:13.190Z,5.15
2022-10-31T04:23:40.812Z,5.16
2022-10-31T04:26:11.488Z,5.17
2022-10-31T04:28:39.256Z,5.16
2022-10-31T04:31:06.752Z,5.16
2022-10-31T04:33:34.295Z,5.16
2022-10-31T04:36:01.942Z,5.16
2022-10-31T04:38:29.600Z,5.14
2022-10-31T04:40:57.381Z,5.10
2022-10-31T04:43:25.084Z,5.07
2022-10-31T04:45:52.547Z,5.03
2022-10-31T04:48:20.269Z,5.01
2022-10-31T04:50:47.791Z,5.00
2022-10-31T04:53:15.535Z,4.95
2022-10-31T04:55:43.026Z,4.93
2022-10-31T04:58:10.554Z,4.94
2022-10-31T05:00:38.090Z,4.87
2022-10-31T05:03:05.616Z,4.85
2022-10-31T05:05:33.102Z,4.81
2022-10-31T05:08:00.843Z,4.77
2022-10-31T05:10:30.721Z,4.74
2022-10-31T05:13:01.797Z,4.67
2022-10-31T05:15:30.137Z,4.65
2022-10-31T05:17:58.706Z,4.61
2022-10-31T05:20:29.183Z,4.56
2022-10-31T05:22:58.176Z,4.59
2022-10-31T05:25:27.390Z,4.56
2022-10-31T05:27:56.515Z,4.48
2022-10-31T05:30:30.347Z,4.48
2022-10-31T05:32:58.188Z,4.49
2022-10-31T05:35:33.883Z,4.47
2022-10-31T05:38:01.799Z,4.42
2022-10-31T05:40:29.749Z,4.43
2022-10-31T05:42:59.700Z,4.42
2022-10-31T05:45:27.705Z,4.42
2022-10-31T05:48:00.961Z,4.37
2022-10-31T05:50:31.163Z,4.29
2022-10-31T05:53:01.472Z,4.30
2022-10-31T05:55:30.097Z,4.31
2022-10-31T05:57:59.252Z,4.29
2022-10-31T06:00:28.348Z,4.28
2022-10-31T06:03:01.012Z,4.34
2022-10-31T06:05:29.535Z,4.31
2022-10-31T06:07:58.509Z,4.38
2022-10-31T06:10:27.873Z,4.38
2022-10-31T06:12:55.504Z,4.35
2022-10-31T06:15:24.519Z,4.36
2022-10-31T06:18:18.965Z,4.35
2022-10-31T06:20:46.668Z,4.33
2022-10-31T06:23:14.222Z,4.30
2022-10-31T06:25:41.638Z,4.33
2022-10-31T06:28:09.647Z,4.35
2022-10-31T06:30:37.385Z,4.39
2022-10-31T06:33:06.131Z,4.44
2022-10-31T06:35:33.747Z,4.46
2022-10-31T06:38:01.501Z,4.49
2022-10-31T06:40:29.400Z,4.52
2022-10-31T06:42:58.901Z,4.51
2022-10-31T06:45:26.572Z,4.48
2022-10-31T06:50:43.031Z,4.61
2022-10-31T06:55:43.644Z,4.68
2022-10-31T06:58:12.318Z,4.67
2022-10-31T07:00:39.956Z,4.70
2022-10-31T07:03:11.947Z,4.76
2022-10-31T07:05:39.752Z,4.87
2022-10-31T07:08:09.766Z,5.06
2022-10-31T07:10:40.502Z,5.34
2022-10-31T07:13:15.815Z,5.69
2022-10-31T07:15:44.865Z,5.98
2022-10-31T07:18:13.176Z,6.25
2022-10-31T07:20:40.713Z,6.46
2022-10-31T07:23:12.491Z,6.58
2022-10-31T07:25:41.091Z,6.74
2022-10-31T07:28:09.127Z,6.88
2022-10-31T07:30:37.422Z,7.01
2022-10-31T07:33:05.705Z,7.05
2022-10-31T07:35:33.344Z,7.08
2022-10-31T07:38:09.258Z,6.93
2022-10-31T07:40:37.135Z,6.79
2022-10-31T07:43:11.566Z,6.81
2022-10-31T07:45:41.830Z,6.92
2022-10-31T07:48:09.347Z,6.95
2022-10-31T07:50:37.147Z,7.12
2022-10-31T07:53:10.532Z,7.07
2022-10-31T07:55:39.003Z,6.90
2022-10-31T07:58:09.216Z,6.85
2022-10-31T08:00:38.474Z,6.92
2022-10-31T08:03:12.145Z,7.00
2022-10-31T08:05:41.933Z,6.95
2022-10-31T08:08:10.299Z,6.96
2022-10-31T08:10:38.124Z,6.99
2022-10-31T08:13:08.455Z,7.02
2022-10-31T08:15:39.028Z,7.10
2022-10-31T08:18:07.898Z,7.13
2022-10-31T08:20:35.595Z,7.09
2022-10-31T08:23:05.164Z,7.07
2022-10-31T08:25:38.278Z,7.08
2022-10-31T08:28:08.074Z,7.11
2022-10-31T08:30:37.778Z,7.08
2022-10-31T08:33:12.445Z,7.02
2022-10-31T08:35:40.537Z,6.96
2022-10-31T08:38:10.893Z,6.91
2022-10-31T08:40:39.597Z,6.86
2022-10-31T08:43:12.904Z,6.81
2022-10-31T08:45:41.219Z,6.68
2022-10-31T08:48:12.773Z,6.63
2022-10-31T08:50:40.784Z,6.61
2022-10-31T08:53:19.779Z,6.56
2022-10-31T08:55:48.219Z,6.61
2022-10-31T08:58:20.131Z,6.58
2022-10-31T09:00:50.460Z,6.55
2022-10-31T09:03:20.442Z,6.61
2022-10-31T09:05:48.102Z,6.62
2022-10-31T09:08:17.312Z,6.53
2022-10-31T09:10:46.048Z,6.60
2022-10-31T09:13:16.297Z,6.63
2022-10-31T09:15:45.990Z,6.62
2022-10-31T09:18:16.751Z,6.59
2022-10-31T09:20:45.770Z,6.58
2022-10-31T09:23:16.304Z,6.53
2022-10-31T09:25:50.054Z,6.55
2022-10-31T09:28:20.388Z,6.65
2022-10-31T09:30:51.926Z,6.67
2022-10-31T09:33:20.432Z,6.64
2022-10-31T09:35:48.167Z,6.63
2022-10-31T09:38:20.087Z,6.58
2022-10-31T09:40:53.085Z,6.63
2022-10-31T09:43:49.354Z,6.74
2022-10-31T09:46:41.141Z,6.70
2022-10-31T09:49:23.526Z,6.70
2022-10-31T09:54:51.543Z,6.84
2022-10-31T09:57:26.240Z,6.88
2022-10-31T09:59:53.782Z,6.84
2022-10-31T10:02:38.566Z,6.73
2022-10-31T10:05:12.636Z,6.68
2022-10-31T10:07:58.649Z,6.87
2022-10-31T10:10:53.681Z,6.81
2022-10-31T10:13:34.052Z,6.77
2022-10-31T10:16:15.925Z,6.87
2022-10-31T10:18:58.579Z,6.99
2022-10-31T10:21:50.388Z,6.99
2022-10-31T10:24:28.855Z,6.99
2022-10-31T10:27:32.109Z,7.00
2022-10-31T10:30:07.519Z,7.02
2022-10-31T10:32:51.126Z,7.03
2022-10-31T10:35:28.883Z,7.08
2022-10-31T10:38:09.887Z,7.03
2022-10-31T10:40:38.345Z,6.98
2022-10-31T10:43:24.447Z,7.07
2022-10-31T10:46:54.879Z,7.13
2022-10-31T10:49:49.184Z,7.16
2022-10-31T10:52:39.651Z,7.21
2022-10-31T10:55:19.837Z,7.23
2022-10-31T10:58:01.805Z,7.05
2022-10-31T11:00:41.496Z,6.99
2022-10-31T11:03:09.975Z,7.08
2022-10-31T11:05:41.767Z,7.21
2022-10-31T11:08:09.890Z,7.22
2022-10-31T11:10:37.972Z,7.33
2022-10-31T11:13:14.752Z,7.34
2022-10-31T11:16:00.335Z,7.45
2022-10-31T11:18:31.868Z,7.55
2022-10-31T11:21:01.594Z,7.46
2022-10-31T11:23:29.780Z,7.33
2022-10-31T11:25:59.797Z,7.33
2022-10-31T11:28:33.391Z,7.27
2022-10-31T11:31:07.034Z,7.32
2022-10-31T11:33:52.123Z,7.44
2022-10-31T11:36:25.884Z,7.41
2022-10-31T11:38:54.626Z,7.37
2022-10-31T11:41:27.455Z,7.36
2022-10-31T11:43:58.627Z,7.37
2022-10-31T11:46:44.639Z,7.29
2022-10-31T11:49:21.867Z,7.26
2022-10-31T11:51:53.287Z,7.26
2022-10-31T11:54:27.746Z,7.42
2022-10-31T11:56:55.517Z,7.44
2022-10-31T11:59:29.506Z,7.49
2022-10-31T12:01:59.980Z,7.60
2022-10-31T12:04:40.475Z,7.51
2022-10-31T12:07:08.360Z,7.55
2022-10-31T12:09:37.930Z,7.55
2022-10-31T12:12:23.841Z,7.50
2022-10-31T12:15:09.508Z,7.45
2022-10-31T12:18:03.999Z,7.42
2022-10-31T12:20:51.013Z,7.37
2022-10-31T12:23:55.216Z,7.40
2022-10-31T12:26:35.886Z,7.45
2022-10-31T12:29:18.627Z,7.45
2022-10-31T12:32:21.337Z,7.44
2022-10-31T12:35:20.910Z,7.48
2022-10-31T12:38:26.993Z,7.50
2022-10-31T12:41:18.897Z,7.49
2022-10-31T12:44:03.572Z,7.47
2022-10-31T12:47:12.611Z,7.41
2022-10-31T12:49:58.624Z,7.42
2022-10-31T12:52:26.045Z,7.45
2022-10-31T12:54:59.464Z,7.52
2022-10-31T12:57:34.555Z,7.57
2022-10-31T13:00:04.503Z,7.55
2022-10-31T13:02:39.855Z,7.53
2022-10-31T13:05:25.669Z,7.54
2022-10-31T13:07:59.573Z,7.50
2022-10-31T13:10:43.494Z,7.57
2022-10-31T13:13:18.389Z,7.65
2022-10-31T13:15:53.028Z,7.71
2022-10-31T13:18:29.154Z,7.81
2022-10-31T13:20:59.159Z,7.85
2022-10-31T13:23:51.280Z,7.87
2022-10-31T13:26:36.317Z,7.84
2022-10-31T13:29:15.909Z,7.82
2022-10-31T13:31:44.345Z,7.85
2022-10-31T13:34:19.279Z,7.86
2022-10-31T13:36:56.748Z,7.88
2022-10-31T13:39:39.451Z,7.84
2022-10-31T13:42:10.104Z,7.86
2022-10-31T13:44:40.829Z,7.84
2022-10-31T13:47:29.660Z,7.83
2022-10-31T13:50:35.812Z,7.81
2022-10-31T13:53:48.403Z,7.71
2022-10-31T13:56:25.628Z,7.68
2022-10-31T13:59:01.487Z,7.71
2022-10-31T14:01:30.660Z,7.69
2022-10-31T14:04:13.817Z,7.72
2022-10-31T14:07:07.624Z,7.70
2022-10-31T14:09:37.189Z,7.69
2022-10-31T14:12:23.769Z,7.69
2022-10-31T14:14:55.136Z,7.70
2022-10-31T14:17:33.398Z,7.68
2022-10-31T14:20:11.529Z,7.67
2022-10-31T14:22:42.835Z,7.68
2022-10-31T14:25:28.983Z,7.68
2022-10-31T14:27:57.586Z,7.65
2022-10-31T14:30:27.556Z,7.65
2022-10-31T14:33:18.835Z,7.65
2022-10-31T14:35:55.172Z,7.62
2022-10-31T14:38:29.996Z,7.63
2022-10-31T14:41:06.573Z,7.61
2022-10-31T14:43:52.647Z,7.61
2022-10-31T14:46:36.981Z,7.64
2022-10-31T14:49:21.076Z,7.66
2022-10-31T14:51:51.640Z,7.66
2022-10-31T14:54:29.612Z,7.67
2022-10-31T14:57:03.690Z,7.67
2022-10-31T14:59:36.375Z,7.69
2022-10-31T15:02:22.498Z,7.70
2022-10-31T15:04:54.071Z,7.70
2022-10-31T15:07:25.390Z,7.69
2022-10-31T15:10:01.660Z,7.65
2022-10-31T15:12:31.082Z,7.67
2022-10-31T15:15:11.269Z,7.64
2022-10-31T15:17:50.278Z,7.65
2022-10-31T15:20:21.065Z,7.65
2022-10-31T15:22:49.520Z,7.65
2022-10-31T15:25:22.397Z,7.67
2022-10-31T15:27:51.907Z,7.68
2022-10-31T15:30:20.018Z,7.70
2022-10-31T15:32:57.610Z,7.72
2022-10-31T15:35:31.168Z,7.71
2022-10-31T15:38:00.968Z,7.71
2022-10-31T15:40:29.261Z,7.72
2022-10-31T15:43:05.966Z,7.74
2022-10-31T15:45:33.543Z,7.73
2022-10-31T15:48:05.648Z,7.70
2022-10-31T15:50:33.402Z,7.72
2022-10-31T15:53:02.411Z,7.73
2022-10-31T15:55:34.043Z,7.75
2022-10-31T15:58:05.834Z,7.75
2022-10-31T16:00:36.618Z,7.76
2022-10-31T16:03:05.625Z,7.78
2022-10-31T16:05:50.936Z,7.75
2022-10-31T16:08:30.153Z,7.78
2022-10-31T16:11:15.106Z,7.79
2022-10-31T16:13:57.593Z,7.81
2022-10-31T16:16:41.493Z,7.84
2022-10-31T16:19:18.661Z,7.83
2022-10-31T16:21:48.152Z,7.84
2022-10-31T16:24:48.465Z,7.81
2022-10-31T16:27:26.556Z,7.81
2022-10-31T16:29:57.327Z,7.80
2022-10-31T16:32:55.678Z,7.80
2022-10-31T16:35:37.827Z,7.80
2022-10-31T16:38:06.585Z,7.79
2022-10-31T16:40:35.325Z,7.80
2022-10-31T16:43:03.333Z,7.80
2022-10-31T16:45:33.069Z,7.83
2022-10-31T16:48:06.970Z,7.88
2022-10-31T16:50:34.911Z,7.86
2022-10-31T16:53:17.972Z,7.86
2022-10-31T16:55:59.448Z,7.86
2022-10-31T16:58:30.723Z,7.84
2022-10-31T17:00:59.125Z,7.84
2022-10-31T17:03:27.221Z,7.88
2022-10-31T17:05:57.441Z,7.90
2022-10-31T17:08:26.354Z,7.95
2022-10-31T17:10:58.959Z,7.94
2022-10-31T17:13:30.759Z,7.95
2022-10-31T17:16:03.384Z,7.96
2022-10-31T17:18:31.199Z,8.01
2022-10-31T17:21:03.491Z,8.01
2022-10-31T17:23:33.147Z,8.02
2022-10-31T17:26:00.958Z,8.02
2022-10-31T17:28:33.857Z,8.02
2022-10-31T17:31:01.831Z,8.04
2022-10-31T17:33:29.401Z,8.05
2022-10-31T17:35:56.929Z,8.06
2022-10-31T17:38:24.911Z,8.06
2022-10-31T17:40:53.012Z,8.08
2022-10-31T17:43:21.380Z,8.07
2022-10-31T17:45:49.382Z,8.06
2022-10-31T17:48:17.340Z,8.06
2022-10-31T17:50:45.075Z,8.11
2022-10-31T17:53:12.562Z,8.09
2022-10-31T17:55:40.081Z,8.11
2022-10-31T17:58:08.352Z,8.12
2022-10-31T18:00:35.821Z,8.15
2022-10-31T18:03:04.503Z,8.14
2022-10-31T18:05:32.927Z,8.17
2022-10-31T18:08:04.167Z,8.17
2022-10-31T18:10:32.415Z,8.16
2022-10-31T18:13:00.509Z,8.15
2022-10-31T18:15:28.558Z,8.16
2022-10-31T18:17:56.798Z,8.17
2022-10-31T18:20:24.632Z,8.19
2022-10-31T18:22:52.313Z,8.20
2022-10-31T18:25:19.838Z,8.22
2022-10-31T18:27:47.426Z,8.22
2022-10-31T18:30:15.409Z,8.22
2022-10-31T18:32:43.081Z,8.21
2022-10-31T18:35:11.238Z,8.19
2022-10-31T18:37:38.853Z,8.19
2022-10-31T18:40:07.173Z,8.21
2022-10-31T18:42:35.538Z,8.19
2022-10-31T18:45:11.459Z,8.20
2022-10-31T18:47:44.830Z,8.23
2022-10-31T18:50:12.568Z,8.21
2022-10-31T18:52:40.417Z,8.20
2022-10-31T18:55:09.517Z,8.14
2022-10-31T18:57:37.880Z,8.18
2022-10-31T19:00:07.198Z,8.19
2022-10-31T19:02:35.210Z,8.19
2022-10-31T19:05:02.719Z,8.15
2022-10-31T19:07:31.084Z,8.15
2022-10-31T19:09:58.688Z,8.17
2022-10-31T19:12:26.390Z,8.17
2022-10-31T19:14:54.542Z,8.21
2022-10-31T19:17:24.776Z,8.27
2022-10-31T19:19:52.358Z,8.26
2022-10-31T19:22:19.961Z,8.23
2022-10-31T19:24:48.242Z,8.22
2022-10-31T19:27:16.070Z,8.24
2022-10-31T19:29:43.928Z,8.25
2022-10-31T19:32:11.864Z,8.26
2022-10-31T19:34:39.591Z,8.27
2022-10-31T19:37:07.103Z,8.25
2022-10-31T19:39:36.001Z,8.27
2022-10-31T19:42:05.275Z,8.28
2022-10-31T19:44:33.832Z,8.28
2022-10-31T19:47:01.531Z,8.28
2022-10-31T19:49:29.392Z,8.33
2022-10-31T19:51:57.359Z,8.36
2022-10-31T19:54:25.224Z,8.32
2022-10-31T19:56:52.888Z,8.34
2022-10-31T19:59:20.427Z,8.35
2022-10-31T20:01:48.244Z,8.35
2022-10-31T20:04:16.293Z,8.36
2022-10-31T20:06:44.307Z,8.39
2022-10-31T20:09:13.936Z,8.41
2022-10-31T20:11:43.920Z,8.41
2022-10-31T20:14:14.346Z,8.43
2022-10-31T20:16:43.070Z,8.43
2022-10-31T20:19:11.006Z,8.43
2022-10-31T20:21:40.419Z,8.45
2022-10-31T20:24:09.811Z,8.45
2022-10-31T20:26:40.701Z,8.47
2022-10-31T20:29:13.546Z,8.46
2022-10-31T20:31:41.120Z,8.49
2022-10-31T20:34:08.759Z,8.47
2022-10-31T20:36:36.851Z,8.47
2022-10-31T20:39:05.183Z,8.48
2022-10-31T20:41:35.932Z,8.49
2022-10-31T20:44:04.997Z,8.52
2022-10-31T20:46:33.546Z,8.54
2022-10-31T20:49:02.047Z,8.55
2022-10-31T20:51:31.806Z,8.52
2022-10-31T20:54:00.233Z,8.54
2022-10-31T20:56:29.031Z,8.55
2022-10-31T20:58:56.757Z,8.54
2022-10-31T21:01:30.590Z,8.56
2022-10-31T21:03:59.820Z,8.57
2022-10-31T21:06:28.708Z,8.59
2022-10-31T21:08:57.476Z,8.62
2022-10-31T21:11:27.075Z,8.63
2022-10-31T21:13:55.369Z,8.63
2022-10-31T21:16:25.778Z,8.62
2022-10-31T21:18:54.125Z,8.65
2022-10-31T21:21:32.005Z,8.68
2022-10-31T21:24:06.844Z,8.70
2022-10-31T21:26:39.204Z,8.71
2022-10-31T21:29:07.831Z,8.74
2022-10-31T21:31:37.086Z,8.76
2022-10-31T21:34:05.145Z,8.76
2022-10-31T21:36:32.986Z,8.78
2022-10-31T21:39:00.838Z,8.79
2022-10-31T21:41:28.865Z,8.80
2022-10-31T21:43:56.452Z,8.78
2022-10-31T21:46:31.930Z,8.82
2022-10-31T21:49:02.487Z,8.85
2022-10-31T21:51:33.034Z,8.85
2022-10-31T21:54:19.315Z,8.84
2022-10-31T21:56:46.991Z,8.86
2022-10-31T21:59:14.559Z,8.86
2022-10-31T22:01:42.196Z,8.88
2022-10-31T22:04:10.448Z,8.90
2022-10-31T22:06:38.673Z,8.89
2022-10-31T22:09:10.221Z,8.94
2022-10-31T22:11:37.962Z,8.95
2022-10-31T22:14:05.571Z,8.97
2022-10-31T22:16:36.038Z,8.95
2022-10-31T22:19:05.897Z,8.97
2022-10-31T22:21:39.587Z,8.98
2022-10-31T22:24:08.056Z,8.96
2022-10-31T22:26:36.805Z,9.00
2022-10-31T22:29:10.655Z,9.00
2022-10-31T22:31:41.652Z,9.02
2022-10-31T22:34:10.033Z,9.02
2022-10-31T22:36:38.443Z,9.03
2022-10-31T22:39:06.619Z,9.08
2022-10-31T22:41:36.085Z,9.06
2022-10-31T22:44:05.491Z,9.11
2022-10-31T22:46:36.134Z,9.09
2022-10-31T22:49:10.081Z,9.07
2022-10-31T22:51:39.525Z,9.10
2022-10-31T22:54:16.544Z,9.12
2022-10-31T22:56:44.486Z,9.07
2022-10-31T22:59:13.737Z,9.06
2022-10-31T23:01:42.044Z,9.14
2022-10-31T23:06:42.887Z,9.18
2022-10-31T23:09:14.053Z,9.12
2022-10-31T23:11:42.303Z,9.20
2022-10-31T23:14:14.224Z,9.16
2022-10-31T23:16:44.744Z,9.19
2022-10-31T23:19:17.542Z,9.26
2022-10-31T23:22:02.294Z,9.27
2022-10-31T23:24:33.269Z,9.25
2022-10-31T23:27:11.068Z,9.21
2022-10-31T23:29:52.143Z,9.23
2022-10-31T23:32:32.228Z,9.22
2022-10-31T23:35:02.105Z,9.27
2022-10-31T23:37:31.593Z,9.32
2022-10-31T23:39:59.626Z,9.27
2022-10-31T23:42:28.529Z,9.29
2022-10-31T23:44:56.516Z,9.28
2022-10-31T23:47:24.532Z,9.34
2022-10-31T23:49:52.076Z,9.31
2022-10-31T23:52:20.031Z,9.35
2022-10-31T23:54:47.772Z,9.35
2022-10-31T23:57:16.500Z,9.39
2022-10-31T23:59:44.218Z,9.38
